createdAt,value
2022-08-17T00:48:29.223Z,72.00
2022-08-17T00:51:04.447Z,70.47
2022-08-17T00:53:36.221Z,67.55
2022-08-17T00:56:07.994Z,75.82
2022-08-17T00:58:36.302Z,66.95
2022-08-17T01:01:05.511Z,70.15
2022-08-17T01:03:35.617Z,70.63
2022-08-17T01:06:04.522Z,69.13
2022-08-17T01:08:32.319Z,71.43
2022-08-17T01:11:02.221Z,76.65
2022-08-17T01:13:36.758Z,67.00
2022-08-17T01:16:13.191Z,73.57
2022-08-17T01:18:42.163Z,70.57
2022-08-17T01:21:27.468Z,76.20
2022-08-17T01:23:55.972Z,80.03
2022-08-17T01:26:23.712Z,81.13
2022-08-17T01:28:53.876Z,82.60
2022-08-17T01:31:23.488Z,74.55
2022-08-17T01:33:50.379Z,75.22
2022-08-17T01:36:17.127Z,80.00
2022-08-17T01:38:43.963Z,80.32
2022-08-17T01:41:15.621Z,83.18
2022-08-17T01:43:47.823Z,85.78
2022-08-17T01:46:17.967Z,96.68
2022-08-17T01:48:47.586Z,83.32
2022-08-17T01:51:15.999Z,80.38
2022-08-17T01:53:47.531Z,88.30
2022-08-17T01:56:20.041Z,83.97
2022-08-17T01:58:46.827Z,90.13
2022-08-17T02:01:14.765Z,77.65
2022-08-17T02:03:42.309Z,79.95
2022-08-17T02:06:27.475Z,84.80
2022-08-17T02:09:03.244Z,88.35
2022-08-17T02:11:34.403Z,98.45
2022-08-17T02:14:03.636Z,102.03
2022-08-17T02:16:37.405Z,96.18
2022-08-17T02:19:06.653Z,97.43
2022-08-17T02:21:34.244Z,97.13
2022-08-17T02:24:01.235Z,111.38
2022-08-17T02:26:28.191Z,112.20
2022-08-17T02:28:56.327Z,98.63
2022-08-17T02:31:23.224Z,106.45
2022-08-17T02:34:00.488Z,109.72
2022-08-17T02:36:31.315Z,105.43
2022-08-17T02:38:58.720Z,93.53
2022-08-17T02:41:25.612Z,89.60
2022-08-17T02:43:53.647Z,106.65
2022-08-17T02:46:22.573Z,96.65
2022-08-17T02:48:49.566Z,90.05
2022-08-17T02:51:17.159Z,104.45
2022-08-17T02:53:43.984Z,104.75
2022-08-17T02:56:10.761Z,99.78
2022-08-17T02:58:37.586Z,115.60
2022-08-17T03:01:05.227Z,104.25
2022-08-17T03:03:33.987Z,113.95
2022-08-17T03:06:01.200Z,112.45
2022-08-17T03:08:28.468Z,119.80
2022-08-17T03:10:55.321Z,108.55
2022-08-17T03:13:22.477Z,117.25
2022-08-17T03:15:49.680Z,101.15
2022-08-17T03:18:24.793Z,109.53
2022-08-17T03:20:55.301Z,112.28
2022-08-17T03:23:23.958Z,103.40
2022-08-17T03:25:53.801Z,124.88
2022-08-17T03:28:21.755Z,123.30
2022-08-17T03:30:48.976Z,127.18
2022-08-17T03:33:16.890Z,105.68
2022-08-17T03:35:43.881Z,111.18
2022-08-17T03:38:15.851Z,121.20
2022-08-17T03:40:56.464Z,108.53
2022-08-17T03:43:25.683Z,111.97
2022-08-17T03:46:28.177Z,97.47
2022-08-17T03:49:16.542Z,106.40
2022-08-17T03:52:01.975Z,104.82
2022-08-17T03:54:48.665Z,95.45
2022-08-17T03:57:16.342Z,114.20
2022-08-17T03:59:43.409Z,115.25
2022-08-17T04:02:17.469Z,103.90
2022-08-17T04:04:44.699Z,113.00
2022-08-17T04:07:11.937Z,115.93
2022-08-17T04:09:40.208Z,115.30
2022-08-17T04:12:07.308Z,107.78
2022-08-17T04:14:51.463Z,123.72
2022-08-17T04:17:22.310Z,113.75
2022-08-17T04:19:49.088Z,114.03
2022-08-17T04:22:32.656Z,149.73
2022-08-17T04:25:09.117Z,136.02
2022-08-17T04:27:36.192Z,130.60
2022-08-17T04:30:06.944Z,110.63
2022-08-17T04:33:04.290Z,132.13
2022-08-17T04:35:36.916Z,118.60
2022-08-17T04:38:04.109Z,119.30
2022-08-17T04:40:51.137Z,115.28
2022-08-17T04:43:19.678Z,125.20
2022-08-17T04:45:54.897Z,114.80
2022-08-17T04:48:27.892Z,134.48
2022-08-17T04:51:05.468Z,137.27
2022-08-17T04:53:32.254Z,133.27
2022-08-17T04:56:00.482Z,119.32
2022-08-17T04:58:27.339Z,116.85
2022-08-17T05:00:54.147Z,124.05
2022-08-17T05:03:20.952Z,159.10
2022-08-17T05:05:49.778Z,135.40
2022-08-17T05:08:19.529Z,139.98
2022-08-17T05:10:47.160Z,145.02
2022-08-17T05:13:17.053Z,130.77
2022-08-17T05:15:47.856Z,128.60
2022-08-17T05:18:17.553Z,140.73
2022-08-17T05:20:44.840Z,148.40
2022-08-17T05:23:14.788Z,130.70
2022-08-17T05:25:47.424Z,132.73
2022-08-17T05:28:19.646Z,127.75
2022-08-17T05:30:51.123Z,118.70
2022-08-17T05:33:21.786Z,119.90
2022-08-17T05:35:51.136Z,121.78
2022-08-17T05:38:21.541Z,128.25
2022-08-17T05:40:48.720Z,126.22
2022-08-17T05:43:20.626Z,119.70
2022-08-17T05:45:56.430Z,116.97
2022-08-17T05:48:35.515Z,115.70
2022-08-17T05:51:22.550Z,117.38
2022-08-17T05:53:56.926Z,127.45
2022-08-17T05:56:35.255Z,114.22
2022-08-17T05:59:14.523Z,108.15
2022-08-17T06:01:48.415Z,113.78
2022-08-17T06:04:26.311Z,119.63
2022-08-17T06:07:00.045Z,106.78
2022-08-17T06:12:20.290Z,106.68
2022-08-17T06:15:03.775Z,126.93
2022-08-17T06:17:31.502Z,116.15
2022-08-17T06:20:03.049Z,116.50
2022-08-17T06:22:33.355Z,125.88
2022-08-17T06:25:04.695Z,109.28
2022-08-17T06:27:41.341Z,118.53
2022-08-17T06:30:14.232Z,125.03
2022-08-17T06:32:43.637Z,120.63
2022-08-17T06:35:13.106Z,112.38
2022-08-17T06:37:54.033Z,106.25
2022-08-17T06:40:39.076Z,110.55
2022-08-17T06:43:20.108Z,116.57
2022-08-17T06:45:55.601Z,131.25
2022-08-17T06:48:40.780Z,123.80
2022-08-17T06:51:17.281Z,104.07
2022-08-17T06:53:49.901Z,123.00
2022-08-17T06:56:24.523Z,123.60
2022-08-17T06:59:17.553Z,133.07
2022-08-17T07:01:49.422Z,146.63
2022-08-17T07:04:21.401Z,129.02
2022-08-17T07:06:52.291Z,152.27
2022-08-17T07:09:23.623Z,139.40
2022-08-17T07:11:53.419Z,143.52
2022-08-17T07:14:37.916Z,147.68
2022-08-17T07:17:09.092Z,142.55
2022-08-17T07:39:06.084Z,150.32
2022-08-17T07:41:53.512Z,128.23
2022-08-17T07:44:26.630Z,142.00
2022-08-17T07:47:13.212Z,134.48
2022-08-17T07:49:46.016Z,134.20
2022-08-17T07:52:50.987Z,147.18
2022-08-17T07:55:27.042Z,137.82
2022-08-17T07:57:56.819Z,125.35
2022-08-17T08:00:31.723Z,132.30
2022-08-17T08:03:14.841Z,126.45
2022-08-17T08:05:52.815Z,129.68
2022-08-17T08:08:26.754Z,141.45
2022-08-17T08:11:07.322Z,137.68
2022-08-17T08:13:35.978Z,135.40
2022-08-17T08:16:26.444Z,117.28
2022-08-17T08:18:57.526Z,115.10
2022-08-17T08:21:36.353Z,108.00
2022-08-17T08:24:21.899Z,113.20
2022-08-17T08:26:55.491Z,116.72
2022-08-17T08:32:06.338Z,101.30
2022-08-17T08:35:02.561Z,107.35
2022-08-17T08:37:43.185Z,110.43
2022-08-17T08:40:28.458Z,99.90
2022-08-17T08:43:03.930Z,116.82
2022-08-17T08:45:38.593Z,99.38
2022-08-17T08:48:45.949Z,99.97
2022-08-17T08:51:12.211Z,98.82
2022-08-17T08:53:49.102Z,121.50
2022-08-17T08:56:34.424Z,115.63
2022-08-17T08:59:09.215Z,119.35
2022-08-17T09:01:46.061Z,115.47
2022-08-17T09:04:40.699Z,99.65
2022-08-17T09:07:33.701Z,115.72
2022-08-17T09:10:09.518Z,94.88
2022-08-17T09:12:47.679Z,113.50
2022-08-17T09:15:20.950Z,108.13
2022-08-17T09:18:14.548Z,96.85
2022-08-17T09:20:50.227Z,109.88
2022-08-17T09:23:29.725Z,116.65
2022-08-17T09:26:02.948Z,98.10
2022-08-17T09:28:34.707Z,114.22
2022-08-17T09:31:07.776Z,107.50
2022-08-17T09:33:40.524Z,89.68
2022-08-17T09:36:12.911Z,91.32
2022-08-17T09:38:46.749Z,92.05
2022-08-17T09:41:20.469Z,91.63
2022-08-17T09:44:01.039Z,83.97
2022-08-17T09:46:39.478Z,96.90
2022-08-17T09:49:15.013Z,91.03
2022-08-17T09:51:51.540Z,82.93
2022-08-17T09:54:38.672Z,87.95
2022-08-17T09:57:31.440Z,79.88
2022-08-17T10:00:16.727Z,75.15
2022-08-17T10:03:00.509Z,75.72
2022-08-17T10:05:39.498Z,67.40
2022-08-17T10:08:15.707Z,69.60
2022-08-17T10:10:56.653Z,68.57
2022-08-17T10:13:35.842Z,71.72
2022-08-17T10:16:10.847Z,64.88
2022-08-17T10:18:48.732Z,63.88
2022-08-17T10:21:36.560Z,62.00
2022-08-17T10:24:28.516Z,69.10
2022-08-17T10:27:00.049Z,67.07
2022-08-17T10:29:47.422Z,58.88
2022-08-17T10:32:26.333Z,69.35
2022-08-17T10:35:14.737Z,64.13
2022-08-17T10:38:10.389Z,66.85
2022-08-17T10:40:46.806Z,61.10
2022-08-17T10:43:30.262Z,70.68
2022-08-17T10:46:10.683Z,59.38
2022-08-17T10:49:22.929Z,66.40
2022-08-17T10:56:44.269Z,57.50
2022-08-17T10:59:47.596Z,63.22
2022-08-17T11:02:27.176Z,57.78
2022-08-17T11:05:06.925Z,57.78
2022-08-17T11:07:49.127Z,64.38
2022-08-17T11:10:51.981Z,64.97
2022-08-17T11:13:30.206Z,54.03
2022-08-17T11:16:08.671Z,58.75
2022-08-17T11:18:56.954Z,55.58
2022-08-17T11:25:54.835Z,64.50
2022-08-17T11:58:19.650Z,55.05
2022-08-17T12:15:28.625Z,54.72
2022-08-17T12:19:05.600Z,49.08
2022-08-17T12:22:07.715Z,49.97
2022-08-17T12:34:22.103Z,62.83
2022-08-17T12:36:51.967Z,63.97
2022-08-17T12:39:25.104Z,65.78
2022-08-17T12:42:09.548Z,62.95
2022-08-17T12:44:50.125Z,55.30
2022-08-17T12:47:22.553Z,50.83
2022-08-17T12:49:51.941Z,53.15
2022-08-17T12:52:25.009Z,59.55
2022-08-17T12:54:55.849Z,61.95
2022-08-17T12:57:25.581Z,58.70
2022-08-17T12:59:58.609Z,45.30
2022-08-17T13:02:42.512Z,47.75
2022-08-17T13:07:46.748Z,47.30
2022-08-17T13:10:19.623Z,41.33
2022-08-17T13:12:48.011Z,47.63
2022-08-17T13:15:20.995Z,51.90
2022-08-17T13:17:58.190Z,52.13
2022-08-17T13:20:25.146Z,47.67
2022-08-17T13:22:58.696Z,51.35
2022-08-17T13:25:26.726Z,47.15
2022-08-17T13:27:55.414Z,55.88
2022-08-17T13:30:24.918Z,52.33
2022-08-17T13:32:53.832Z,51.30
2022-08-17T13:35:39.941Z,56.75
2022-08-17T13:38:12.402Z,58.17
2022-08-17T13:40:42.423Z,52.85
2022-08-17T13:43:10.263Z,52.47
2022-08-17T13:46:07.034Z,46.05
2022-08-17T13:48:34.238Z,51.72
2022-08-17T13:51:26.365Z,58.47
2022-08-17T13:53:59.637Z,65.95
2022-08-17T13:56:38.819Z,60.80
2022-08-17T13:59:09.844Z,58.22
2022-08-17T14:01:40.141Z,65.78
2022-08-17T14:04:09.960Z,57.58
2022-08-17T14:06:53.454Z,52.17
2022-08-17T14:09:26.284Z,49.97
2022-08-17T14:11:54.844Z,52.78
2022-08-17T14:14:24.107Z,48.42
2022-08-17T14:16:51.611Z,54.95
2022-08-17T14:19:19.722Z,57.05
2022-08-17T14:21:46.785Z,51.75
2022-08-17T14:24:23.443Z,52.00
2022-08-17T14:26:54.390Z,61.22
2022-08-17T14:29:22.539Z,56.42
2022-08-17T14:31:53.357Z,59.60
2022-08-17T14:34:22.070Z,57.67
2022-08-17T14:36:49.029Z,57.05
2022-08-17T14:39:16.698Z,59.65
2022-08-17T14:41:45.048Z,60.28
2022-08-17T14:44:13.108Z,51.83
2022-08-17T14:46:40.907Z,59.67
2022-08-17T14:49:07.937Z,54.88
2022-08-17T14:51:35.217Z,58.13
2022-08-17T14:54:10.343Z,49.55
2022-08-17T14:56:38.708Z,47.35
2022-08-17T14:59:07.079Z,50.75
2022-08-17T15:01:34.030Z,44.35
2022-08-17T15:04:01.054Z,46.78
2022-08-17T15:06:28.003Z,38.88
2022-08-17T15:08:54.908Z,43.35
2022-08-17T15:11:21.840Z,36.80
2022-08-17T15:13:53.107Z,43.38
2022-08-17T15:16:22.655Z,33.63
2022-08-17T15:18:50.208Z,35.70
2022-08-17T15:21:18.176Z,36.13
2022-08-17T15:23:45.047Z,38.25
2022-08-17T15:26:12.237Z,37.35
2022-08-17T15:28:39.075Z,38.40
2022-08-17T15:31:06.739Z,41.05
2022-08-17T15:33:34.952Z,38.17
2022-08-17T15:36:06.485Z,38.90
2022-08-17T15:38:36.668Z,40.15
2022-08-17T15:41:03.995Z,39.30
2022-08-17T15:43:34.161Z,42.33
2022-08-17T15:46:03.981Z,37.55
2022-08-17T15:48:41.723Z,38.33
2022-08-17T15:51:11.466Z,32.60
2022-08-17T15:53:38.512Z,36.70
2022-08-17T15:56:06.149Z,39.42
2022-08-17T15:58:33.585Z,45.38
2022-08-17T16:01:16.804Z,36.63
2022-08-17T16:04:04.069Z,33.53
2022-08-17T16:06:33.675Z,33.58
2022-08-17T16:09:00.638Z,32.33
2022-08-17T16:11:27.602Z,33.28
2022-08-17T16:13:56.028Z,30.20
2022-08-17T16:16:23.755Z,27.17
2022-08-17T16:18:53.584Z,33.13
2022-08-17T16:21:25.913Z,27.25
2022-08-17T16:23:56.648Z,28.67
2022-08-17T16:26:23.813Z,28.67
2022-08-17T16:28:51.639Z,30.10
2022-08-17T16:35:35.414Z,28.80
2022-08-17T16:38:08.623Z,29.52
2022-08-17T16:40:36.425Z,34.90
2022-08-17T16:43:03.832Z,32.08
2022-08-17T16:45:40.076Z,37.03
2022-08-17T16:48:07.626Z,40.17
2022-08-17T16:50:37.001Z,36.75
2022-08-17T16:53:07.014Z,37.00
2022-08-17T16:55:37.344Z,33.85
2022-08-17T16:58:05.457Z,34.10
2022-08-17T17:00:33.697Z,38.38
2022-08-17T17:03:19.595Z,45.08
2022-08-17T17:05:59.000Z,43.83
2022-08-17T17:08:30.547Z,43.55
2022-08-17T17:10:59.863Z,45.08
2022-08-17T17:13:36.795Z,47.15
2022-08-17T17:16:17.238Z,36.38
2022-08-17T17:18:59.037Z,38.63
2022-08-17T17:21:35.746Z,40.40
2022-08-17T17:24:07.833Z,33.10
2022-08-17T17:26:49.985Z,27.88
2022-08-17T17:29:35.793Z,31.17
2022-08-17T17:32:21.713Z,28.25
2022-08-17T17:34:51.897Z,27.45
2022-08-17T17:45:53.787Z,21.02
2022-08-17T17:57:31.295Z,20.95
2022-08-17T21:38:02.837Z,30.98
2022-08-17T21:40:54.514Z,25.67
2022-08-17T21:43:55.581Z,25.02
2022-08-17T21:46:47.911Z,32.00
2022-08-17T21:49:53.698Z,29.42
2022-08-17T21:52:29.779Z,45.17
2022-08-17T21:55:08.448Z,32.47
2022-08-17T21:57:52.776Z,30.75
2022-08-17T22:00:43.579Z,28.20
2022-08-17T22:03:42.756Z,29.95
2022-08-17T22:06:38.621Z,35.45
2022-08-17T22:09:36.741Z,36.50
2022-08-17T22:12:39.558Z,27.77
2022-08-17T22:15:20.954Z,35.63
2022-08-17T22:18:06.631Z,27.13
2022-08-17T22:20:53.829Z,28.70
2022-08-17T22:23:56.197Z,30.35
2022-08-17T22:29:54.414Z,26.63
2022-08-17T22:32:37.780Z,28.02
2022-08-17T22:35:26.547Z,37.08
2022-08-17T22:37:53.487Z,29.23
2022-08-17T22:40:30.411Z,31.23
2022-08-17T22:42:58.888Z,39.13
2022-08-17T22:45:31.140Z,36.58
2022-08-17T22:48:00.240Z,53.40
2022-08-17T22:50:29.663Z,46.58
2022-08-17T22:53:18.007Z,34.63
2022-08-17T22:56:11.362Z,44.38
2022-08-17T22:59:02.967Z,37.90
2022-08-17T23:01:34.794Z,36.92
2022-08-17T23:04:04.705Z,41.08
2022-08-17T23:06:35.722Z,43.58
2022-08-17T23:09:04.444Z,46.58
2022-08-17T23:11:49.547Z,47.15
2022-08-17T23:14:19.237Z,41.88
2022-08-17T23:16:48.691Z,48.53
2022-08-17T23:19:18.844Z,44.03
2022-08-17T23:21:46.484Z,40.45
2022-08-17T23:24:19.913Z,44.00
2022-08-17T23:26:47.449Z,47.63
2022-08-17T23:29:14.332Z,44.67
2022-08-17T23:31:41.470Z,48.17
2022-08-17T23:34:13.092Z,42.88
2022-08-17T23:36:40.166Z,47.47
2022-08-17T23:39:07.713Z,51.50
2022-08-17T23:41:38.584Z,44.47
2022-08-17T23:44:06.510Z,39.85
2022-08-17T23:46:34.499Z,36.38
2022-08-17T23:49:01.442Z,43.95
2022-08-17T23:51:34.623Z,45.10
2022-08-17T23:54:08.107Z,56.67
2022-08-17T23:56:40.089Z,43.97
2022-08-17T23:59:06.790Z,44.90
